Duluth International Airport Duluth US
ICAO: KDLH
IATA: DLH
Category: Large
Scheduled Services: Yes

Elevation: 1428 ft
TransAlt. 18000 ft.

Airport Communications:
APP/DEP:125.45
ATIS:124.1
GND:121.9
ANG COMD POST:28.89
PTD:28.89
PRINCETON RDO:122.35
TWR:118.3
UNICOM:122.95

KDLH Zoom In..

If Map Doesn't Load, Click Here

Runways:

(A) RW 03 length 5719 ft width 150 ft
---- / hdg 30

(B) RW 09 length 10162 ft width 150 ft
ILS 110.30 / hdg 90

(C) RW 21 length 5719 ft width 150 ft
---- / hdg 210

(D) RW 27 length 10162 ft width 150 ft
ILS 108.70 / hdg 270

Location; KDLH
Day. 26 / Time. 10.55 Zulu
* Altimeter: 29.95
* Temperature: 06° c. 42.8°f.
* Wind from: 280° Speed 09 kn.
Dewpoint: 03° c.
Visibility: 10 Statute Miles.
Clouds: Scattered 4300 ft.
Clouds: Overcast 8000 ft.

KDLH 261055Z 28009KT 10SM SCT043 OVC080 06/03 A2995 RMK AO2 SLP152 T00560033


Wind From 280°
Speed 09 kn.

 
 
jpsmedia.com for Web Design worldairports.se 2018   terms of use